createdAt,value
2023-05-05T00:01:32.505Z,65994.94
2023-05-05T00:06:37.737Z,66011.00
2023-05-05T00:11:41.602Z,65986.34
2023-05-05T00:16:45.584Z,65998.59
2023-05-05T00:21:51.086Z,66046.75
2023-05-05T00:26:54.972Z,65961.13
2023-05-05T00:31:59.035Z,66043.84
2023-05-05T00:37:04.630Z,66071.25
2023-05-05T00:42:08.566Z,65997.63
2023-05-05T00:47:13.941Z,65947.31
2023-05-05T00:52:19.298Z,66032.31
2023-05-05T00:57:23.554Z,66074.09
2023-05-05T01:02:27.774Z,66070.88
2023-05-05T01:07:42.455Z,66018.91
2023-05-05T01:12:54.771Z,65953.28
2023-05-05T01:18:04.049Z,65988.06
2023-05-05T01:23:13.560Z,65940.34
2023-05-05T01:28:29.147Z,65991.63
2023-05-05T01:33:38.047Z,65927.53
2023-05-05T01:38:46.264Z,65997.09
2023-05-05T01:43:51.702Z,65983.06
2023-05-05T01:48:58.386Z,65926.88
2023-05-05T01:54:05.665Z,65883.69
2023-05-05T01:59:10.885Z,65864.84
2023-05-05T02:04:18.478Z,65861.31
2023-05-05T02:09:24.951Z,65823.44
2023-05-05T02:14:31.612Z,65854.81
2023-05-05T02:19:41.157Z,65839.81
2023-05-05T02:24:45.873Z,65904.00
2023-05-05T02:29:54.041Z,65869.22
2023-05-05T02:35:02.820Z,65854.81
2023-05-05T02:40:10.236Z,65900.25
2023-05-05T02:45:19.530Z,65957.47
2023-05-05T02:50:27.041Z,65982.09
2023-05-05T02:55:45.302Z,65849.34
2023-05-05T03:00:56.884Z,65838.31
2023-05-05T03:06:12.472Z,65766.69
2023-05-05T03:11:25.117Z,65776.41
2023-05-05T03:16:32.341Z,65725.03
2023-05-05T03:21:38.653Z,65734.63
2023-05-05T03:26:44.321Z,65786.28
2023-05-05T03:31:48.736Z,65871.91
2023-05-05T03:36:54.087Z,65921.63
2023-05-05T03:41:58.103Z,65973.97
2023-05-05T03:47:06.852Z,66000.38
2023-05-05T03:52:15.153Z,66076.31
2023-05-05T03:57:20.401Z,66068.91
2023-05-05T04:02:24.449Z,66092.66
2023-05-05T04:07:29.897Z,66089.28
2023-05-05T04:12:33.999Z,66129.78
2023-05-05T04:17:38.147Z,66174.72
2023-05-05T04:22:43.742Z,66133.72
2023-05-05T04:27:47.718Z,66166.31
2023-05-05T04:32:51.872Z,66272.94
2023-05-05T04:37:57.250Z,66170.06
2023-05-05T04:43:01.468Z,66262.75
2023-05-05T04:48:06.974Z,66232.88
2023-05-05T04:53:12.382Z,66300.81
2023-05-05T04:58:16.843Z,66354.03
2023-05-05T05:03:22.213Z,66360.47
2023-05-05T05:08:27.597Z,66362.59
2023-05-05T05:13:31.625Z,66393.91
2023-05-05T05:18:35.510Z,66487.19
2023-05-05T05:23:41.131Z,66672.13
2023-05-05T05:28:45.397Z,66560.88
2023-05-05T05:33:49.530Z,66545.28
2023-05-05T05:38:54.984Z,66594.84
2023-05-05T05:43:59.080Z,66714.47
2023-05-05T05:49:03.878Z,66639.22
2023-05-05T05:54:09.548Z,66631.25
2023-05-05T05:59:13.711Z,66632.25
2023-05-05T06:04:18.886Z,66597.88
2023-05-05T06:09:24.299Z,66757.75
2023-05-05T06:14:30.740Z,66713.00
2023-05-05T06:19:36.985Z,66628.00
2023-05-05T06:24:42.160Z,66727.59
2023-05-05T06:29:46.466Z,66687.69
2023-05-05T06:34:50.408Z,66762.06
2023-05-05T06:39:56.835Z,66818.44
2023-05-05T06:45:00.896Z,66809.34
2023-05-05T06:50:05.554Z,66749.59
2023-05-05T06:55:11.559Z,66708.69
2023-05-05T07:00:17.466Z,66766.34
2023-05-05T07:05:21.931Z,66777.59
2023-05-05T07:10:28.616Z,66839.44
2023-05-05T07:15:32.654Z,66789.91
2023-05-05T07:20:36.632Z,66881.47
2023-05-05T07:25:42.762Z,66874.44
2023-05-05T07:30:46.813Z,66923.94
2023-05-05T07:35:50.969Z,66938.66
2023-05-05T07:40:56.303Z,67003.88
2023-05-05T07:46:02.679Z,66960.13
2023-05-05T07:51:06.648Z,66848.69
2023-05-05T07:56:12.128Z,66945.66
2023-05-05T08:01:16.218Z,66944.66
2023-05-05T08:06:22.215Z,66960.81
2023-05-05T08:11:29.558Z,66926.84
2023-05-05T08:16:33.825Z,66908.53
2023-05-05T08:21:37.896Z,66989.78
2023-05-05T08:26:43.257Z,66979.59
2023-05-05T08:31:47.246Z,66999.00
2023-05-05T08:36:51.335Z,67131.78
2023-05-05T08:41:56.701Z,67210.59
2023-05-05T08:47:01.119Z,66947.81
2023-05-05T08:52:10.303Z,66968.28
2023-05-05T08:57:20.917Z,67003.25
2023-05-05T09:02:28.633Z,66974.22
2023-05-05T09:07:33.562Z,66971.66
2023-05-05T09:12:41.406Z,66933.25
2023-05-05T09:17:46.265Z,66946.81
2023-05-05T09:22:51.713Z,66986.16
2023-05-05T09:27:57.127Z,67010.25
2023-05-05T09:33:02.310Z,66980.63
2023-05-05T09:38:12.970Z,66999.06
2023-05-05T09:43:19.596Z,67039.47
2023-05-05T09:48:27.554Z,67031.91
2023-05-05T09:53:40.997Z,67083.28
2023-05-05T09:58:46.490Z,67034.69
2023-05-05T10:03:52.569Z,67170.66
2023-05-05T10:09:02.343Z,67130.09
2023-05-05T10:14:09.826Z,67074.66
2023-05-05T10:19:16.445Z,67103.66
2023-05-05T10:24:29.412Z,67056.66
2023-05-05T10:29:41.393Z,67082.06
2023-05-05T10:34:52.206Z,67054.50
2023-05-05T10:39:57.570Z,67107.50
2023-05-05T10:45:03.302Z,67051.41
2023-05-05T10:50:15.123Z,67160.41
2023-05-05T10:55:22.577Z,67103.78
2023-05-05T11:00:55.689Z,67188.91
2023-05-05T11:06:15.801Z,67126.84
2023-05-05T11:12:00.329Z,67199.84
2023-05-05T11:17:05.849Z,67163.69
2023-05-05T11:22:09.897Z,67285.00
2023-05-05T11:27:13.957Z,67478.03
2023-05-05T11:32:20.021Z,67711.88
2023-05-05T11:37:25.262Z,67793.13
2023-05-05T11:42:30.408Z,67588.97
2023-05-05T11:47:36.304Z,67697.78
2023-05-05T11:52:40.214Z,67656.06
2023-05-05T11:57:44.054Z,67856.53
2023-05-05T12:02:58.213Z,67961.28
2023-05-05T12:08:02.805Z,67869.63
2023-05-05T12:13:19.155Z,67985.72
2023-05-05T12:18:24.653Z,67776.91
2023-05-05T12:23:30.186Z,67807.22
2023-05-05T12:28:46.451Z,67695.09
2023-05-05T12:33:53.812Z,67572.22
2023-05-05T12:38:57.851Z,67576.50
2023-05-05T12:44:03.244Z,67713.00
2023-05-05T12:49:09.868Z,67852.31
2023-05-05T12:54:13.883Z,67936.28
2023-05-05T12:59:30.789Z,67736.31
2023-05-05T13:04:49.542Z,67747.63
2023-05-05T13:10:07.119Z,67734.06
2023-05-05T13:15:12.423Z,67764.41
2023-05-05T13:20:17.992Z,67717.28
2023-05-05T13:25:21.983Z,67755.28
2023-05-05T13:30:25.932Z,67668.59
2023-05-05T13:35:31.401Z,67679.97
2023-05-05T13:40:35.481Z,67682.63
2023-05-05T13:45:41.241Z,67831.09
2023-05-05T13:50:47.234Z,67993.28
2023-05-05T13:55:51.140Z,67918.94
2023-05-05T14:00:56.349Z,67781.28
2023-05-05T14:06:01.523Z,67869.03
2023-05-05T14:11:05.577Z,67789.91
2023-05-05T14:16:09.723Z,67726.06
2023-05-05T14:21:15.113Z,67772.00
2023-05-05T14:26:19.092Z,67758.56
2023-05-05T14:31:23.173Z,67843.03
2023-05-05T14:36:28.649Z,67749.81
2023-05-05T14:41:32.746Z,67834.84
2023-05-05T14:46:36.829Z,67751.47
2023-05-05T14:51:42.822Z,67780.19
2023-05-05T14:56:46.692Z,67714.13
2023-05-05T15:01:50.596Z,67690.75
2023-05-05T15:06:56.484Z,67729.69
2023-05-05T15:12:00.415Z,67662.06
2023-05-05T15:17:04.343Z,67690.28
2023-05-05T15:22:09.679Z,67668.06
2023-05-05T15:27:13.690Z,67732.50
2023-05-05T15:32:18.065Z,67714.50
2023-05-05T15:37:23.632Z,67755.22
2023-05-05T15:42:27.912Z,67813.16
2023-05-05T15:47:31.942Z,67710.25
2023-05-05T15:52:37.301Z,67792.56
2023-05-05T15:57:41.458Z,67739.50
2023-05-05T16:02:45.681Z,67636.09
2023-05-05T16:07:52.546Z,67525.16
2023-05-05T16:12:56.976Z,67308.81
2023-05-05T16:18:00.929Z,67243.47
2023-05-05T16:23:06.874Z,67198.09
2023-05-05T16:28:10.797Z,67189.53
2023-05-05T16:33:14.691Z,67109.59
2023-05-05T16:38:19.985Z,67108.50
2023-05-05T16:43:23.848Z,67086.47
2023-05-05T16:48:27.721Z,67118.75
2023-05-05T16:53:33.044Z,67105.25
2023-05-05T16:58:36.904Z,67085.84
2023-05-05T17:03:40.993Z,67071.34
2023-05-05T17:08:46.388Z,67042.16
2023-05-05T17:13:50.277Z,67024.34
2023-05-05T17:19:08.823Z,67040.53
2023-05-05T17:24:14.132Z,67086.31
2023-05-05T17:29:19.890Z,66969.28
2023-05-05T17:34:23.841Z,66968.28
2023-05-05T17:39:29.110Z,66978.00
2023-05-05T17:44:33.132Z,66951.97
2023-05-05T17:49:37.068Z,66862.59
2023-05-05T17:54:42.758Z,66850.75
2023-05-05T17:59:47.175Z,66841.06
2023-05-05T18:04:51.290Z,66832.03
2023-05-05T18:09:56.974Z,66837.91
2023-05-05T18:15:01.627Z,66855.59
2023-05-05T18:20:07.111Z,66834.28
2023-05-05T18:25:12.908Z,66803.28
2023-05-05T18:30:17.537Z,66765.22
2023-05-05T18:35:21.462Z,66713.63
2023-05-05T18:40:26.743Z,66721.59
2023-05-05T18:45:30.783Z,66707.16
2023-05-05T18:50:34.763Z,66694.09
2023-05-05T18:55:40.116Z,66695.72
2023-05-05T19:00:44.048Z,66660.25
2023-05-05T19:05:47.933Z,66665.56
2023-05-05T19:10:53.396Z,66683.94
2023-05-05T19:15:58.050Z,66622.03
2023-05-05T19:21:01.981Z,66637.16
2023-05-05T19:26:07.317Z,66638.16
2023-05-05T19:31:11.286Z,66603.34
2023-05-05T19:36:15.694Z,66569.41
2023-05-05T19:41:21.195Z,66544.66
2023-05-05T19:46:26.518Z,66550.13
2023-05-05T19:51:32.231Z,66566.19
2023-05-05T19:56:37.672Z,66563.97
2023-05-05T20:01:41.599Z,66552.72
2023-05-05T20:06:48.206Z,66561.44
2023-05-05T20:11:53.514Z,66575.78
2023-05-05T20:16:58.660Z,66505.53
2023-05-05T20:22:03.169Z,66525.94
2023-05-05T20:27:08.458Z,66509.22
2023-05-05T20:32:12.669Z,66479.66
2023-05-05T20:37:16.675Z,66472.69
2023-05-05T20:42:23.144Z,66451.72
2023-05-05T20:47:27.092Z,66477.97
2023-05-05T20:52:32.069Z,66437.78
2023-05-05T20:57:37.924Z,66464.53
2023-05-05T21:02:42.331Z,66433.56
2023-05-05T21:07:46.736Z,66463.47
2023-05-05T21:13:07.642Z,66413.09
2023-05-05T21:18:11.701Z,66434.03
2023-05-05T21:23:15.600Z,66451.13
2023-05-05T21:28:20.996Z,66401.69
2023-05-05T21:33:25.005Z,66379.69
2023-05-05T21:38:28.915Z,66330.31
2023-05-05T21:43:34.162Z,66344.34
2023-05-05T21:48:39.075Z,66348.81
2023-05-05T21:53:44.460Z,66303.06
2023-05-05T21:58:52.774Z,66265.50
2023-05-05T22:03:56.757Z,66262.22
2023-05-05T22:09:01.035Z,66241.34
2023-05-05T22:14:06.280Z,66254.69
2023-05-05T22:19:10.460Z,66224.81
2023-05-05T22:24:14.458Z,66218.84
2023-05-05T22:29:19.692Z,66232.88
2023-05-05T22:34:23.962Z,66231.69
2023-05-05T22:39:27.966Z,66197.31
2023-05-05T22:44:33.236Z,66194.09
2023-05-05T22:49:37.166Z,66180.16
2023-05-05T22:54:41.399Z,66143.81
2023-05-05T22:59:46.715Z,66155.53
2023-05-05T23:04:51.253Z,66150.16
2023-05-05T23:09:55.340Z,66180.69
2023-05-05T23:15:00.676Z,66207.94
2023-05-05T23:20:05.871Z,66162.38
2023-05-05T23:25:10.711Z,66162.66
2023-05-05T23:30:16.787Z,66154.00
2023-05-05T23:35:20.841Z,66172.56
2023-05-05T23:40:25.031Z,66169.06
2023-05-05T23:45:30.443Z,66161.06
2023-05-05T23:50:34.304Z,66152.94
2023-05-05T23:55:38.165Z,66175.88
